Wetterdaten: Woche 08.08.16 - 14.08.16 (KW32)
Datum Zeit Temperatur Luftfeuchte Luftdruck Niederschlag Windrichtung Sonnenschein Solar Wind
08.08.2016 00:00 13,5 C 93 % 1022,3 hPa 0,0 l/m N 0,00 h 0 W/m 0,0 km/h (0 Bft)
08.08.2016 01:00 12,9 C 94 % 1022,0 hPa 0,0 l/m N 0,00 h 0 W/m 0,0 km/h (0 Bft)
08.08.2016 02:00 12,5 C 95 % 1021,8 hPa 0,0 l/m O 0,00 h 0 W/m 0,8 km/h (0 Bft)
08.08.2016 03:00 11,9 C 95 % 1021,4 hPa 0,0 l/m N 0,00 h 0 W/m 0,0 km/h (0 Bft)
08.08.2016 04:00 11,5 C 97 % 1021,2 hPa 0,0 l/m N 0,00 h 0 W/m 0,0 km/h (0 Bft)
08.08.2016 05:00 11,2 C 97 % 1021,1 hPa 0,0 l/m N 0,00 h 0 W/m 0,0 km/h (0 Bft)
08.08.2016 06:00 10,9 C 97 % 1021,1 hPa 0,0 l/m N 0,00 h 15 W/m 0,0 km/h (0 Bft)
08.08.2016 07:00 12,0 C 98 % 1021,0 hPa 0,0 l/m N 0,33 h 114 W/m 0,0 km/h (0 Bft)
08.08.2016 08:00 15,6 C 93 % 1020,7 hPa 0,0 l/m SO 1,00 h 290 W/m 5,9 km/h (2 Bft)
08.08.2016 09:00 18,4 C 86 % 1020,4 hPa 0,0 l/m S-SW 1,00 h 461 W/m 10,6 km/h (2 Bft)
08.08.2016 10:00 20,8 C 78 % 1020,1 hPa 0,0 l/m S-SW 1,00 h 614 W/m 10,8 km/h (2 Bft)
08.08.2016 11:00 22,8 C 68 % 1019,6 hPa 0,0 l/m SW 1,00 h 737 W/m 13,0 km/h (3 Bft)
08.08.2016 12:00 24,3 C 60 % 1019,0 hPa 0,0 l/m SW 1,00 h 823 W/m 14,6 km/h (3 Bft)
08.08.2016 13:00 25,3 C 58 % 1018,6 hPa 0,0 l/m SW 1,00 h 857 W/m 17,8 km/h (3 Bft)
08.08.2016 14:00 25,9 C 55 % 1018,1 hPa 0,0 l/m SW 1,00 h 843 W/m 17,4 km/h (3 Bft)
08.08.2016 15:00 26,2 C 56 % 1017,6 hPa 0,0 l/m W-SW 1,00 h 782 W/m 17,2 km/h (3 Bft)
08.08.2016 16:00 26,2 C 56 % 1017,1 hPa 0,0 l/m SW 1,00 h 681 W/m 16,5 km/h (3 Bft)
08.08.2016 17:00 25,8 C 58 % 1016,7 hPa 0,0 l/m W-SW 1,00 h 511 W/m 15,8 km/h (3 Bft)
08.08.2016 18:00 24,9 C 61 % 1016,4 hPa 0,0 l/m W-SW 0,67 h 260 W/m 13,6 km/h (3 Bft)
08.08.2016 19:00 23,2 C 69 % 1016,5 hPa 0,0 l/m W 0,08 h 58 W/m 4,9 km/h (1 Bft)
08.08.2016 20:00 21,3 C 79 % 1016,6 hPa 0,0 l/m N 0,00 h 15 W/m 2,0 km/h (1 Bft)
08.08.2016 21:00 20,2 C 83 % 1017,1 hPa 0,0 l/m W 0,00 h 0 W/m 2,7 km/h (1 Bft)
08.08.2016 22:00 20,0 C 80 % 1017,5 hPa 0,0 l/m N-NO 0,00 h 0 W/m 10,3 km/h (2 Bft)
08.08.2016 23:00 19,2 C 82 % 1017,4 hPa 0,0 l/m N 0,00 h 0 W/m 4,9 km/h (1 Bft)
09.08.2016 00:00 18,5 C 84 % 1017,6 hPa 0,0 l/m N-NO 0,00 h 0 W/m 4,7 km/h (1 Bft)
09.08.2016 01:00 17,9 C 85 % 1017,4 hPa 0,0 l/m N-NO 0,00 h 0 W/m 4,0 km/h (1 Bft)
09.08.2016 02:00 17,0 C 88 % 1017,0 hPa 7,4 l/m N 0,00 h 0 W/m 3,2 km/h (1 Bft)
09.08.2016 03:00 15,3 C 95 % 1017,3 hPa 5,4 l/m W-SW 0,00 h 0 W/m 5,3 km/h (1 Bft)
09.08.2016 04:00 14,9 C 97 % 1016,8 hPa 0,0 l/m N 0,00 h 0 W/m 0,0 km/h (0 Bft)
09.08.2016 05:00 14,6 C 98 % 1016,6 hPa 0,0 l/m N 0,00 h 0 W/m 0,0 km/h (0 Bft)
09.08.2016 06:00 14,5 C 99 % 1016,9 hPa 0,6 l/m SW 0,00 h 9 W/m 2,5 km/h (1 Bft)
09.08.2016 07:00 14,7 C 99 % 1016,8 hPa 0,2 l/m W-SW 0,00 h 58 W/m 2,0 km/h (1 Bft)
09.08.2016 08:00 14,9 C 97 % 1017,3 hPa 0,0 l/m W-SW 0,00 h 51 W/m 1,2 km/h (1 Bft)
09.08.2016 09:00 15,1 C 96 % 1017,5 hPa 0,0 l/m N 0,00 h 80 W/m 0,5 km/h (0 Bft)
09.08.2016 10:00 15,5 C 92 % 1017,5 hPa 0,0 l/m W-SW 0,00 h 141 W/m 5,1 km/h (1 Bft)
09.08.2016 11:00 15,6 C 88 % 1017,6 hPa 0,0 l/m NW 0,00 h 179 W/m 8,0 km/h (2 Bft)
09.08.2016 12:00 15,8 C 84 % 1017,7 hPa 0,0 l/m N-NW 0,00 h 123 W/m 12,9 km/h (3 Bft)
09.08.2016 13:00 15,2 C 85 % 1017,9 hPa 0,0 l/m N 0,00 h 131 W/m 14,5 km/h (3 Bft)
09.08.2016 14:00 15,3 C 84 % 1018,0 hPa 0,0 l/m N-NO 0,00 h 100 W/m 8,4 km/h (2 Bft)
09.08.2016 15:00 15,4 C 79 % 1018,0 hPa 0,0 l/m N 0,00 h 129 W/m 2,7 km/h (1 Bft)
09.08.2016 16:00 16,3 C 64 % 1017,9 hPa 0,0 l/m N-NO 0,00 h 157 W/m 8,6 km/h (2 Bft)
09.08.2016 17:00 15,7 C 71 % 1017,8 hPa 0,0 l/m SW 0,00 h 86 W/m 3,5 km/h (1 Bft)
09.08.2016 18:00 15,1 C 85 % 1018,2 hPa 0,0 l/m SW 0,00 h 68 W/m 11,0 km/h (2 Bft)
09.08.2016 19:00 14,7 C 86 % 1018,3 hPa 0,0 l/m SW 0,08 h 53 W/m 9,9 km/h (2 Bft)
09.08.2016 20:00 14,0 C 90 % 1018,1 hPa 0,0 l/m SW 0,50 h 26 W/m 10,6 km/h (2 Bft)
09.08.2016 21:00 12,9 C 93 % 1018,5 hPa 0,0 l/m S-SW 0,00 h 0 W/m 4,4 km/h (1 Bft)
09.08.2016 22:00 12,1 C 95 % 1018,4 hPa 0,0 l/m N 0,00 h 0 W/m 0,0 km/h (0 Bft)
09.08.2016 23:00 11,5 C 95 % 1018,1 hPa 0,0 l/m N 0,00 h 0 W/m 0,0 km/h (0 Bft)
10.08.2016 00:00 11,4 C 96 % 1017,8 hPa 0,0 l/m N 0,00 h 0 W/m 0,0 km/h (0 Bft)
10.08.2016 01:00 11,3 C 97 % 1017,7 hPa 0,0 l/m N 0,00 h 0 W/m 0,0 km/h (0 Bft)
10.08.2016 02:00 11,5 C 97 % 1017,4 hPa 0,0 l/m N 0,00 h 0 W/m 0,4 km/h (0 Bft)
10.08.2016 03:00 11,6 C 97 % 1017,0 hPa 0,0 l/m N 0,00 h 0 W/m 0,0 km/h (0 Bft)
10.08.2016 04:00 11,6 C 97 % 1016,8 hPa 0,0 l/m N 0,00 h 0 W/m 0,0 km/h (0 Bft)
10.08.2016 05:00 11,7 C 97 % 1016,9 hPa 0,0 l/m S-SW 0,00 h 0 W/m 0,3 km/h (0 Bft)
10.08.2016 06:00 11,6 C 98 % 1017,2 hPa 0,0 l/m N 0,00 h 5 W/m 0,0 km/h (0 Bft)
10.08.2016 07:00 11,7 C 97 % 1017,4 hPa 0,2 l/m S-SW 0,00 h 36 W/m 0,5 km/h (0 Bft)
10.08.2016 08:00 12,3 C 91 % 1017,7 hPa 0,0 l/m W-SW 0,33 h 160 W/m 5,6 km/h (1 Bft)
10.08.2016 09:00 12,7 C 87 % 1017,9 hPa 0,0 l/m W-NW 0,00 h 122 W/m 4,7 km/h (1 Bft)
10.08.2016 10:00 13,8 C 83 % 1017,9 hPa 0,0 l/m W-NW 0,25 h 306 W/m 4,7 km/h (1 Bft)
10.08.2016 11:00 14,6 C 75 % 1017,8 hPa 0,0 l/m W-NW 0,08 h 191 W/m 5,6 km/h (1 Bft)
10.08.2016 12:00 14,9 C 71 % 1017,7 hPa 0,0 l/m N 0,00 h 190 W/m 7,1 km/h (2 Bft)
10.08.2016 13:00 15,3 C 70 % 1017,5 hPa 0,0 l/m N 0,08 h 364 W/m 8,5 km/h (2 Bft)
10.08.2016 14:00 15,8 C 69 % 1017,5 hPa 0,0 l/m N 0,25 h 348 W/m 7,4 km/h (2 Bft)
10.08.2016 15:00 14,7 C 77 % 1017,8 hPa 0,0 l/m SW 0,08 h 172 W/m 13,3 km/h (3 Bft)
10.08.2016 16:00 13,9 C 89 % 1018,1 hPa 0,0 l/m S-SW 0,25 h 268 W/m 14,8 km/h (3 Bft)
10.08.2016 17:00 14,5 C 86 % 1018,4 hPa 0,0 l/m SW 0,25 h 261 W/m 11,8 km/h (2 Bft)
10.08.2016 18:00 14,2 C 85 % 1018,6 hPa 0,0 l/m S-SW 0,00 h 87 W/m 8,7 km/h (2 Bft)
10.08.2016 19:00 13,8 C 86 % 1018,8 hPa 0,0 l/m S-SW 0,00 h 58 W/m 4,5 km/h (1 Bft)
10.08.2016 20:00 12,8 C 90 % 1019,4 hPa 0,0 l/m N 0,00 h 11 W/m 0,0 km/h (0 Bft)
10.08.2016 21:00 12,2 C 88 % 1020,3 hPa 0,0 l/m W-NW 0,00 h 0 W/m 5,3 km/h (1 Bft)
10.08.2016 22:00 11,4 C 84 % 1021,0 hPa 0,0 l/m NW 0,00 h 0 W/m 7,1 km/h (2 Bft)
10.08.2016 23:00 10,8 C 87 % 1021,3 hPa 0,0 l/m N 0,00 h 0 W/m 2,0 km/h (1 Bft)
11.08.2016 00:00 10,7 C 86 % 1021,1 hPa 0,2 l/m N 0,00 h 0 W/m 3,1 km/h (1 Bft)
11.08.2016 01:00 10,0 C 93 % 1021,2 hPa 0,0 l/m N 0,00 h 0 W/m 0,0 km/h (0 Bft)
11.08.2016 02:00 9,7 C 95 % 1021,3 hPa 0,0 l/m N 0,00 h 0 W/m 0,0 km/h (0 Bft)
11.08.2016 03:00 9,7 C 95 % 1021,5 hPa 0,0 l/m N 0,00 h 0 W/m 0,0 km/h (0 Bft)
11.08.2016 04:00 9,8 C 92 % 1021,7 hPa 0,0 l/m N 0,00 h 0 W/m 0,5 km/h (0 Bft)
11.08.2016 05:00 9,7 C 92 % 1021,9 hPa 0,0 l/m N 0,00 h 0 W/m 2,5 km/h (1 Bft)
11.08.2016 06:00 9,5 C 93 % 1022,4 hPa 0,0 l/m N 0,00 h 16 W/m 0,8 km/h (0 Bft)
11.08.2016 07:00 9,0 C 94 % 1022,8 hPa 0,0 l/m N 0,25 h 94 W/m 2,7 km/h (1 Bft)
11.08.2016 08:00 10,6 C 89 % 1023,1 hPa 0,0 l/m N 0,58 h 252 W/m 1,3 km/h (1 Bft)
11.08.2016 09:00 12,7 C 81 % 1023,3 hPa 0,0 l/m N 0,83 h 422 W/m 3,9 km/h (1 Bft)
11.08.2016 10:00 13,2 C 74 % 1023,2 hPa 0,0 l/m N 0,50 h 451 W/m 4,9 km/h (1 Bft)
11.08.2016 11:00 14,7 C 67 % 1023,1 hPa 0,0 l/m W 0,67 h 625 W/m 8,5 km/h (2 Bft)
11.08.2016 12:00 15,1 C 63 % 1022,9 hPa 0,0 l/m S-SW 0,33 h 488 W/m 4,9 km/h (1 Bft)
11.08.2016 13:00 16,8 C 60 % 1022,5 hPa 0,0 l/m SW 0,67 h 710 W/m 13,8 km/h (3 Bft)
11.08.2016 14:00 17,6 C 57 % 1022,1 hPa 0,0 l/m S-SW 0,75 h 772 W/m 12,1 km/h (2 Bft)
11.08.2016 15:00 17,7 C 56 % 1021,8 hPa 0,0 l/m SW 0,58 h 619 W/m 14,2 km/h (3 Bft)
11.08.2016 16:00 17,9 C 53 % 1021,5 hPa 0,0 l/m W-SW 0,75 h 642 W/m 9,2 km/h (2 Bft)
11.08.2016 17:00 17,8 C 53 % 1021,5 hPa 0,0 l/m W 0,42 h 351 W/m 11,4 km/h (2 Bft)
11.08.2016 18:00 17,2 C 59 % 1021,3 hPa 0,0 l/m W-SW 0,33 h 214 W/m 8,8 km/h (2 Bft)
11.08.2016 19:00 16,0 C 64 % 1021,4 hPa 0,0 l/m W-SW 0,00 h 77 W/m 7,9 km/h (2 Bft)
11.08.2016 20:00 14,5 C 76 % 1021,7 hPa 0,0 l/m N 0,33 h 21 W/m 1,2 km/h (1 Bft)
11.08.2016 21:00 12,8 C 83 % 1022,1 hPa 0,0 l/m W 0,00 h 0 W/m 1,9 km/h (1 Bft)
11.08.2016 22:00 13,2 C 83 % 1022,7 hPa 0,0 l/m W 0,00 h 0 W/m 1,3 km/h (1 Bft)
11.08.2016 23:00 12,9 C 86 % 1022,7 hPa 0,0 l/m N 0,00 h 0 W/m 0,0 km/h (0 Bft)
12.08.2016 00:00 12,7 C 89 % 1022,7 hPa 0,0 l/m N 0,00 h 0 W/m 0,0 km/h (0 Bft)
12.08.2016 01:00 12,6 C 84 % 1022,9 hPa 0,0 l/m W 0,00 h 0 W/m 6,0 km/h (2 Bft)
12.08.2016 02:00 12,6 C 82 % 1022,9 hPa 0,0 l/m W 0,00 h 0 W/m 7,1 km/h (2 Bft)
12.08.2016 03:00 12,2 C 84 % 1022,9 hPa 0,0 l/m W 0,00 h 0 W/m 4,5 km/h (1 Bft)
12.08.2016 04:00 12,0 C 85 % 1023,1 hPa 0,0 l/m W 0,00 h 0 W/m 12,3 km/h (3 Bft)
12.08.2016 05:00 11,4 C 89 % 1023,2 hPa 0,0 l/m W-SW 0,00 h 0 W/m 16,2 km/h (3 Bft)
12.08.2016 06:00 11,4 C 90 % 1023,5 hPa 0,0 l/m SW 0,00 h 5 W/m 11,7 km/h (2 Bft)
12.08.2016 07:00 11,4 C 93 % 1023,9 hPa 0,6 l/m W-SW 0,00 h 20 W/m 13,0 km/h (3 Bft)
12.08.2016 08:00 11,8 C 92 % 1024,3 hPa 0,0 l/m W-SW 0,00 h 39 W/m 19,2 km/h (3 Bft)
12.08.2016 09:00 12,3 C 92 % 1024,6 hPa 0,0 l/m W-SW 0,00 h 89 W/m 14,6 km/h (3 Bft)
12.08.2016 10:00 13,1 C 93 % 1024,9 hPa 0,0 l/m SW 0,00 h 150 W/m 16,4 km/h (3 Bft)
12.08.2016 11:00 13,6 C 93 % 1025,1 hPa 0,0 l/m SW 0,00 h 146 W/m 15,6 km/h (3 Bft)
12.08.2016 12:00 15,1 C 88 % 1025,1 hPa 0,0 l/m SW 0,00 h 292 W/m 19,7 km/h (3 Bft)
12.08.2016 13:00 16,2 C 81 % 1025,2 hPa 0,0 l/m W-SW 0,00 h 238 W/m 20,6 km/h (4 Bft)
12.08.2016 14:00 16,9 C 79 % 1025,2 hPa 0,0 l/m W-SW 0,00 h 175 W/m 17,0 km/h (3 Bft)
12.08.2016 15:00 17,2 C 80 % 1025,2 hPa 0,0 l/m SW 0,00 h 170 W/m 13,0 km/h (3 Bft)
12.08.2016 16:00 17,4 C 80 % 1025,2 hPa 0,0 l/m SW 0,00 h 96 W/m 14,9 km/h (3 Bft)
12.08.2016 17:00 16,6 C 84 % 1025,5 hPa 0,0 l/m S-SW 0,00 h 47 W/m 7,4 km/h (2 Bft)
12.08.2016 18:00 17,8 C 81 % 1025,4 hPa 0,0 l/m SW 0,58 h 259 W/m 8,2 km/h (2 Bft)
12.08.2016 19:00 17,7 C 81 % 1025,2 hPa 0,0 l/m SW 0,42 h 80 W/m 7,1 km/h (2 Bft)
12.08.2016 20:00 15,7 C 88 % 1025,1 hPa 0,0 l/m N 0,00 h 10 W/m 0,7 km/h (0 Bft)
12.08.2016 21:00 13,9 C 94 % 1025,3 hPa 0,0 l/m N 0,00 h 0 W/m 0,0 km/h (0 Bft)
12.08.2016 22:00 12,9 C 96 % 1025,5 hPa 0,0 l/m N 0,00 h 0 W/m 0,0 km/h (0 Bft)
12.08.2016 23:00 12,2 C 97 % 1025,4 hPa 0,0 l/m N 0,00 h 0 W/m 0,0 km/h (0 Bft)
13.08.2016 00:00 11,9 C 97 % 1025,2 hPa 0,0 l/m N 0,00 h 0 W/m 0,0 km/h (0 Bft)
13.08.2016 01:00 11,6 C 98 % 1024,9 hPa 0,0 l/m N 0,00 h 0 W/m 0,0 km/h (0 Bft)
13.08.2016 02:00 11,1 C 98 % 1024,7 hPa 0,0 l/m N 0,00 h 0 W/m 0,0 km/h (0 Bft)
13.08.2016 03:00 10,5 C 98 % 1024,4 hPa 0,0 l/m N 0,00 h 0 W/m 0,0 km/h (0 Bft)
13.08.2016 04:00 10,2 C 98 % 1024,2 hPa 0,0 l/m N 0,00 h 0 W/m 0,0 km/h (0 Bft)
13.08.2016 05:00 9,6 C 98 % 1024,0 hPa 0,0 l/m N 0,00 h 0 W/m 0,0 km/h (0 Bft)
13.08.2016 06:00 9,6 C 98 % 1023,9 hPa 0,0 l/m N 0,00 h 12 W/m 0,0 km/h (0 Bft)
13.08.2016 07:00 11,0 C 98 % 1023,9 hPa 0,0 l/m N 0,33 h 105 W/m 0,0 km/h (0 Bft)
13.08.2016 08:00 14,0 C 94 % 1023,9 hPa 0,0 l/m N 1,00 h 279 W/m 0,0 km/h (0 Bft)
13.08.2016 09:00 17,3 C 83 % 1023,8 hPa 0,0 l/m N 1,00 h 452 W/m 0,0 km/h (0 Bft)
13.08.2016 10:00 19,7 C 73 % 1023,7 hPa 0,0 l/m S-SW 1,00 h 612 W/m 5,1 km/h (1 Bft)
13.08.2016 11:00 21,7 C 64 % 1023,5 hPa 0,0 l/m S-SW 1,00 h 738 W/m 7,1 km/h (2 Bft)
13.08.2016 12:00 22,9 C 59 % 1023,1 hPa 0,0 l/m S 1,00 h 821 W/m 7,0 km/h (2 Bft)
13.08.2016 13:00 24,1 C 56 % 1022,5 hPa 0,0 l/m SO 1,00 h 856 W/m 10,5 km/h (2 Bft)
13.08.2016 14:00 25,3 C 55 % 1021,8 hPa 0,0 l/m S 1,00 h 840 W/m 11,6 km/h (2 Bft)
13.08.2016 15:00 25,9 C 54 % 1021,5 hPa 0,0 l/m W-SW 0,92 h 786 W/m 9,8 km/h (2 Bft)
13.08.2016 16:00 26,4 C 52 % 1021,0 hPa 0,0 l/m SW 1,08 h 659 W/m 7,0 km/h (2 Bft)
13.08.2016 17:00 26,3 C 54 % 1020,6 hPa 0,0 l/m SW 1,00 h 512 W/m 8,3 km/h (2 Bft)
13.08.2016 18:00 25,7 C 58 % 1020,4 hPa 0,0 l/m SW 1,00 h 344 W/m 9,9 km/h (2 Bft)
13.08.2016 19:00 23,8 C 65 % 1020,3 hPa 0,0 l/m SW 0,58 h 111 W/m 9,0 km/h (2 Bft)
13.08.2016 20:00 21,1 C 74 % 1020,4 hPa 0,0 l/m SW 0,00 h 11 W/m 1,5 km/h (1 Bft)
13.08.2016 21:00 18,7 C 83 % 1020,6 hPa 0,0 l/m N 0,00 h 0 W/m 0,0 km/h (0 Bft)
13.08.2016 22:00 17,0 C 90 % 1020,8 hPa 0,0 l/m N 0,00 h 0 W/m 0,0 km/h (0 Bft)
13.08.2016 23:00 16,3 C 92 % 1020,9 hPa 0,0 l/m N 0,00 h 0 W/m 0,0 km/h (0 Bft)
14.08.2016 00:00 15,7 C 93 % 1020,9 hPa 0,0 l/m N 0,00 h 0 W/m 0,0 km/h (0 Bft)
14.08.2016 01:00 15,0 C 95 % 1020,7 hPa 0,0 l/m N 0,00 h 0 W/m 0,0 km/h (0 Bft)
14.08.2016 02:00 14,4 C 96 % 1020,7 hPa 0,0 l/m N 0,00 h 0 W/m 0,0 km/h (0 Bft)
14.08.2016 03:00 13,8 C 97 % 1020,6 hPa 0,0 l/m N 0,00 h 0 W/m 0,0 km/h (0 Bft)
14.08.2016 04:00 13,2 C 97 % 1020,3 hPa 0,0 l/m N 0,00 h 0 W/m 0,0 km/h (0 Bft)
14.08.2016 05:00 12,6 C 98 % 1020,2 hPa 0,0 l/m N 0,00 h 0 W/m 0,0 km/h (0 Bft)
14.08.2016 06:00 12,4 C 98 % 1020,3 hPa 0,0 l/m N 0,00 h 12 W/m 0,0 km/h (0 Bft)
14.08.2016 07:00 13,8 C 97 % 1020,4 hPa 0,0 l/m N 0,25 h 101 W/m 0,0 km/h (0 Bft)
14.08.2016 08:00 16,3 C 92 % 1020,4 hPa 0,0 l/m N 1,00 h 258 W/m 0,0 km/h (0 Bft)
14.08.2016 09:00 19,1 C 86 % 1020,3 hPa 0,0 l/m W-SW 1,00 h 428 W/m 4,8 km/h (1 Bft)
14.08.2016 10:00 21,9 C 76 % 1020,1 hPa 0,0 l/m S 1,00 h 595 W/m 6,8 km/h (2 Bft)
14.08.2016 11:00 23,9 C 67 % 1019,7 hPa 0,0 l/m S 1,00 h 723 W/m 7,6 km/h (2 Bft)
14.08.2016 12:00 25,1 C 63 % 1019,3 hPa 0,0 l/m W-SW 0,83 h 727 W/m 9,1 km/h (2 Bft)
14.08.2016 13:00 25,0 C 65 % 1018,9 hPa 0,0 l/m SW 0,25 h 312 W/m 4,0 km/h (1 Bft)
14.08.2016 14:00 25,8 C 62 % 1018,5 hPa 0,0 l/m SO 0,17 h 306 W/m 3,9 km/h (1 Bft)
14.08.2016 15:00 26,8 C 56 % 1017,9 hPa 0,0 l/m O-NO 0,75 h 686 W/m 5,5 km/h (1 Bft)
14.08.2016 16:00 27,8 C 50 % 1017,7 hPa 0,0 l/m W-SW 0,83 h 595 W/m 7,1 km/h (2 Bft)
14.08.2016 17:00 27,8 C 50 % 1017,4 hPa 0,0 l/m W-NW 0,83 h 474 W/m 6,0 km/h (2 Bft)
14.08.2016 18:00 26,7 C 57 % 1017,3 hPa 0,0 l/m N-NW 1,00 h 336 W/m 1,3 km/h (1 Bft)
14.08.2016 19:00 24,7 C 66 % 1017,4 hPa 0,0 l/m N 0,17 h 52 W/m 3,4 km/h (1 Bft)
14.08.2016 20:00 23,0 C 70 % 1018,0 hPa 0,0 l/m N 0,42 h 23 W/m 1,7 km/h (1 Bft)
14.08.2016 21:00 21,1 C 80 % 1018,4 hPa 0,0 l/m N 0,00 h 0 W/m 0,0 km/h (0 Bft)
14.08.2016 22:00 19,7 C 85 % 1018,8 hPa 0,0 l/m N 0,00 h 0 W/m 0,0 km/h (0 Bft)
14.08.2016 23:00 18,8 C 87 % 1018,8 hPa 0,0 l/m N 0,00 h 0 W/m 0,0 km/h (0 Bft)
Min-Datum _ 11.08.16 14.08.16 08.08.16 - - - - 08.08.16
_ Min-Zeit 07:20 16:10 18:30 - - - - 00:00
Minimum _ 8,8 C 47 % 1016,3 hPa - - - - 0,0 km/h (0 Bft)
Max-Datum _ 14.08.16 09.08.16 12.08.16 09.08.16 - 13.08.16 10.08.16 12.08.16
_ Max-Zeit 17:20 06:20 22:20 02:50 - 16:00 13:20 08:10
Maximum _ 28,4 C 99 % 1025,6 hPa 7,4 l/m - 0,17 h 1055 W/m 27,4 km/h
W-SW (4 Bft)
Durchschnitt _ 16,1 C 82 % 1020,5 hPa #14,6 l/m SW #42:40 h 299 W/m 5,5 km/h (1 Bft)